sensor_id;sensor_type;location;lat;lon;timestamp;temperature;humidity
64705;DHT22;51131;52.298;13.686;2022-09-12T00:01:25;21.40;75.20
64705;DHT22;51131;52.298;13.686;2022-09-12T00:03:56;21.40;75.20
64705;DHT22;51131;52.298;13.686;2022-09-12T00:06:24;21.50;75.30
64705;DHT22;51131;52.298;13.686;2022-09-12T00:08:55;21.50;75.20
64705;DHT22;51131;52.298;13.686;2022-09-12T00:11:22;21.50;75.20
64705;DHT22;51131;52.298;13.686;2022-09-12T00:13:49;21.50;75.10
64705;DHT22;51131;52.298;13.686;2022-09-12T00:16:17;21.50;75.10
64705;DHT22;51131;52.298;13.686;2022-09-12T00:18:44;21.50;75.10
64705;DHT22;51131;52.298;13.686;2022-09-12T00:21:12;21.50;75.10
64705;DHT22;51131;52.298;13.686;2022-09-12T00:23:39;21.50;75.10
64705;DHT22;51131;52.298;13.686;2022-09-12T00:26:06;21.50;75.10
64705;DHT22;51131;52.298;13.686;2022-09-12T00:28:33;21.70;75.20
64705;DHT22;51131;52.298;13.686;2022-09-12T00:31:02;21.50;75.00
64705;DHT22;51131;52.298;13.686;2022-09-12T00:33:29;21.70;75.20
64705;DHT22;51131;52.298;13.686;2022-09-12T00:35:56;21.50;75.00
64705;DHT22;51131;52.298;13.686;2022-09-12T00:38:23;21.50;75.00
64705;DHT22;51131;52.298;13.686;2022-09-12T00:40:49;21.50;75.00
64705;DHT22;51131;52.298;13.686;2022-09-12T00:45:56;21.50;75.00
64705;DHT22;51131;52.298;13.686;2022-09-12T00:48:25;21.50;75.00
64705;DHT22;51131;52.298;13.686;2022-09-12T00:50:56;21.50;75.00
64705;DHT22;51131;52.298;13.686;2022-09-12T00:53:23;21.50;75.00
64705;DHT22;51131;52.298;13.686;2022-09-12T00:55:50;21.50;75.00
64705;DHT22;51131;52.298;13.686;2022-09-12T00:58:21;21.50;75.00
64705;DHT22;51131;52.298;13.686;2022-09-12T01:00:49;21.40;74.90
64705;DHT22;51131;52.298;13.686;2022-09-12T01:03:16;21.50;75.10
64705;DHT22;51131;52.298;13.686;2022-09-12T01:05:51;21.40;74.90
64705;DHT22;51131;52.298;13.686;2022-09-12T01:08:18;21.40;74.90
64705;DHT22;51131;52.298;13.686;2022-09-12T01:10:45;21.50;75.00
64705;DHT22;51131;52.298;13.686;2022-09-12T01:13:13;21.40;74.90
64705;DHT22;51131;52.298;13.686;2022-09-12T01:15:40;21.40;74.90
64705;DHT22;51131;52.298;13.686;2022-09-12T01:18:11;21.40;74.90
64705;DHT22;51131;52.298;13.686;2022-09-12T01:25:47;21.40;74.90
64705;DHT22;51131;52.298;13.686;2022-09-12T01:30:48;21.40;74.80
64705;DHT22;51131;52.298;13.686;2022-09-12T01:38:35;21.40;74.80
64705;DHT22;51131;52.298;13.686;2022-09-12T01:46:14;21.40;74.70
64705;DHT22;51131;52.298;13.686;2022-09-12T01:49:05;21.40;74.70
64705;DHT22;51131;52.298;13.686;2022-09-12T01:54:37;21.50;74.70
64705;DHT22;51131;52.298;13.686;2022-09-12T01:57:07;21.50;74.70
64705;DHT22;51131;52.298;13.686;2022-09-12T01:59:37;21.50;74.70
64705;DHT22;51131;52.298;13.686;2022-09-12T02:02:06;21.40;74.50
64705;DHT22;51131;52.298;13.686;2022-09-12T02:04:37;21.90;75.00
64705;DHT22;51131;52.298;13.686;2022-09-12T02:09:36;21.50;74.60
64705;DHT22;51131;52.298;13.686;2022-09-12T02:12:03;21.50;74.60
64705;DHT22;51131;52.298;13.686;2022-09-12T02:14:33;21.50;74.60
64705;DHT22;51131;52.298;13.686;2022-09-12T02:17:06;21.40;74.50
64705;DHT22;51131;52.298;13.686;2022-09-12T02:19:36;21.50;74.60
64705;DHT22;51131;52.298;13.686;2022-09-12T02:22:05;21.40;74.50
64705;DHT22;51131;52.298;13.686;2022-09-12T02:24:35;21.40;74.50
64705;DHT22;51131;52.298;13.686;2022-09-12T02:27:09;21.40;74.50
64705;DHT22;51131;52.298;13.686;2022-09-12T02:29:36;21.40;74.40
64705;DHT22;51131;52.298;13.686;2022-09-12T02:32:04;21.40;74.40
64705;DHT22;51131;52.298;13.686;2022-09-12T02:37:06;21.40;74.40
64705;DHT22;51131;52.298;13.686;2022-09-12T02:39:34;21.40;74.40
64705;DHT22;51131;52.298;13.686;2022-09-12T02:42:01;21.40;74.30
64705;DHT22;51131;52.298;13.686;2022-09-12T02:44:28;21.30;74.30
64705;DHT22;51131;52.298;13.686;2022-09-12T02:47:07;21.40;74.40
64705;DHT22;51131;52.298;13.686;2022-09-12T02:49:35;21.40;74.40
64705;DHT22;51131;52.298;13.686;2022-09-12T02:52:02;21.60;74.70
64705;DHT22;51131;52.298;13.686;2022-09-12T02:54:29;21.40;74.40
64705;DHT22;51131;52.298;13.686;2022-09-12T02:56:56;21.40;74.30
64705;DHT22;51131;52.298;13.686;2022-09-12T02:59:23;21.40;74.40
64705;DHT22;51131;52.298;13.686;2022-09-12T03:04:29;21.50;74.40
64705;DHT22;51131;52.298;13.686;2022-09-12T03:07:10;21.40;74.30
64705;DHT22;51131;52.298;13.686;2022-09-12T03:09:44;21.50;74.30
64705;DHT22;51131;52.298;13.686;2022-09-12T03:17:22;21.40;74.20
64705;DHT22;51131;52.298;13.686;2022-09-12T03:22:25;21.40;74.10
64705;DHT22;51131;52.298;13.686;2022-09-12T03:27:40;21.40;74.00
64705;DHT22;51131;52.298;13.686;2022-09-12T03:30:09;21.40;74.10
64705;DHT22;51131;52.298;13.686;2022-09-12T03:32:40;21.40;74.10
64705;DHT22;51131;52.298;13.686;2022-09-12T03:35:07;21.40;74.00
64705;DHT22;51131;52.298;13.686;2022-09-12T03:37:34;21.40;73.90
64705;DHT22;51131;52.298;13.686;2022-09-12T03:40:01;21.40;74.00
64705;DHT22;51131;52.298;13.686;2022-09-12T03:42:27;21.40;74.00
64705;DHT22;51131;52.298;13.686;2022-09-12T03:44:54;21.30;73.90
64705;DHT22;51131;52.298;13.686;2022-09-12T03:47:21;21.40;74.00
64705;DHT22;51131;52.298;13.686;2022-09-12T03:49:47;21.40;74.00
64705;DHT22;51131;52.298;13.686;2022-09-12T03:52:14;21.30;74.00
64705;DHT22;51131;52.298;13.686;2022-09-12T03:54:40;21.40;74.10
64705;DHT22;51131;52.298;13.686;2022-09-12T03:57:07;21.40;74.10
64705;DHT22;51131;52.298;13.686;2022-09-12T03:59:34;21.40;74.00
64705;DHT22;51131;52.298;13.686;2022-09-12T04:02:00;21.50;74.10
64705;DHT22;51131;52.298;13.686;2022-09-12T04:04:27;21.50;74.10
64705;DHT22;51131;52.298;13.686;2022-09-12T04:06:54;21.50;74.00
64705;DHT22;51131;52.298;13.686;2022-09-12T04:09:20;21.40;74.00
64705;DHT22;51131;52.298;13.686;2022-09-12T04:11:47;21.40;74.00
64705;DHT22;51131;52.298;13.686;2022-09-12T04:14:14;21.40;73.90
64705;DHT22;51131;52.298;13.686;2022-09-12T04:16:40;21.40;74.00
64705;DHT22;51131;52.298;13.686;2022-09-12T04:19:08;21.40;74.00
64705;DHT22;51131;52.298;13.686;2022-09-12T04:21:36;21.40;73.90
64705;DHT22;51131;52.298;13.686;2022-09-12T04:24:04;21.50;74.10
64705;DHT22;51131;52.298;13.686;2022-09-12T04:26:31;21.40;74.00
64705;DHT22;51131;52.298;13.686;2022-09-12T04:28:58;21.40;74.00
64705;DHT22;51131;52.298;13.686;2022-09-12T04:31:25;21.40;74.00
64705;DHT22;51131;52.298;13.686;2022-09-12T04:33:52;21.40;74.00
64705;DHT22;51131;52.298;13.686;2022-09-12T04:36:19;21.40;74.00
64705;DHT22;51131;52.298;13.686;2022-09-12T04:38:46;21.40;73.90
64705;DHT22;51131;52.298;13.686;2022-09-12T04:41:17;21.50;74.20
64705;DHT22;51131;52.298;13.686;2022-09-12T04:43:44;21.40;74.00
64705;DHT22;51131;52.298;13.686;2022-09-12T04:46:12;21.40;73.90
64705;DHT22;51131;52.298;13.686;2022-09-12T04:48:41;21.40;74.00
64705;DHT22;51131;52.298;13.686;2022-09-12T04:51:08;21.40;74.50
64705;DHT22;51131;52.298;13.686;2022-09-12T04:53:35;21.40;73.90
64705;DHT22;51131;52.298;13.686;2022-09-12T04:56:04;21.50;74.00
64705;DHT22;51131;52.298;13.686;2022-09-12T04:58:31;21.50;74.00
64705;DHT22;51131;52.298;13.686;2022-09-12T05:03:31;21.50;73.90
64705;DHT22;51131;52.298;13.686;2022-09-12T05:06:00;21.50;73.90
64705;DHT22;51131;52.298;13.686;2022-09-12T05:08:28;21.50;73.90
64705;DHT22;51131;52.298;13.686;2022-09-12T05:10:54;21.50;73.80
64705;DHT22;51131;52.298;13.686;2022-09-12T05:13:21;21.40;73.70
64705;DHT22;51131;52.298;13.686;2022-09-12T05:15:54;21.50;73.90
64705;DHT22;51131;52.298;13.686;2022-09-12T05:18:21;21.40;73.70
64705;DHT22;51131;52.298;13.686;2022-09-12T05:20:47;21.40;73.70
64705;DHT22;51131;52.298;13.686;2022-09-12T05:23:14;21.40;73.80
64705;DHT22;51131;52.298;13.686;2022-09-12T05:25:50;21.40;73.70
64705;DHT22;51131;52.298;13.686;2022-09-12T05:28:18;21.40;73.70
64705;DHT22;51131;52.298;13.686;2022-09-12T05:30:45;21.40;73.70
64705;DHT22;51131;52.298;13.686;2022-09-12T05:33:12;21.40;73.70
64705;DHT22;51131;52.298;13.686;2022-09-12T05:35:39;21.50;73.80
64705;DHT22;51131;52.298;13.686;2022-09-12T05:38:06;21.50;73.80
64705;DHT22;51131;52.298;13.686;2022-09-12T05:40:33;21.40;73.70
64705;DHT22;51131;52.298;13.686;2022-09-12T05:43:00;21.40;73.70
64705;DHT22;51131;52.298;13.686;2022-09-12T05:45:26;21.50;73.70
64705;DHT22;51131;52.298;13.686;2022-09-12T05:47:53;21.30;73.50
64705;DHT22;51131;52.298;13.686;2022-09-12T05:50:20;21.60;73.80
64705;DHT22;51131;52.298;13.686;2022-09-12T05:52:48;21.40;73.60
64705;DHT22;51131;52.298;13.686;2022-09-12T05:55:15;21.40;73.60
64705;DHT22;51131;52.298;13.686;2022-09-12T05:57:43;21.40;73.60
64705;DHT22;51131;52.298;13.686;2022-09-12T06:00:12;21.40;73.70
64705;DHT22;51131;52.298;13.686;2022-09-12T06:02:40;21.50;73.60
64705;DHT22;51131;52.298;13.686;2022-09-12T06:05:06;21.50;73.50
64705;DHT22;51131;52.298;13.686;2022-09-12T06:07:33;21.60;73.50
64705;DHT22;51131;52.298;13.686;2022-09-12T06:10:01;21.60;73.40
64705;DHT22;51131;52.298;13.686;2022-09-12T06:12:28;21.70;73.30
64705;DHT22;51131;52.298;13.686;2022-09-12T06:14:55;21.70;73.10
64705;DHT22;51131;52.298;13.686;2022-09-12T06:17:22;21.70;73.00
64705;DHT22;51131;52.298;13.686;2022-09-12T06:19:48;21.70;72.90
64705;DHT22;51131;52.298;13.686;2022-09-12T06:22:16;21.70;72.90
64705;DHT22;51131;52.298;13.686;2022-09-12T06:24:44;21.70;72.90
64705;DHT22;51131;52.298;13.686;2022-09-12T06:27:11;21.70;72.90
64705;DHT22;51131;52.298;13.686;2022-09-12T06:29:37;21.70;72.90
64705;DHT22;51131;52.298;13.686;2022-09-12T06:32:04;21.70;72.90
64705;DHT22;51131;52.298;13.686;2022-09-12T06:34:32;21.70;73.00
64705;DHT22;51131;52.298;13.686;2022-09-12T06:36:59;21.70;73.00
64705;DHT22;51131;52.298;13.686;2022-09-12T06:39:25;21.70;73.10
64705;DHT22;51131;52.298;13.686;2022-09-12T06:41:52;21.70;73.10
64705;DHT22;51131;52.298;13.686;2022-09-12T06:44:20;21.70;73.10
64705;DHT22;51131;52.298;13.686;2022-09-12T06:46:48;21.70;73.20
64705;DHT22;51131;52.298;13.686;2022-09-12T06:49:14;21.70;73.20
64705;DHT22;51131;52.298;13.686;2022-09-12T06:51:43;21.70;73.20
64705;DHT22;51131;52.298;13.686;2022-09-12T06:54:13;21.60;73.20
64705;DHT22;51131;52.298;13.686;2022-09-12T06:56:41;21.60;73.30
64705;DHT22;51131;52.298;13.686;2022-09-12T06:59:07;21.60;73.30
64705;DHT22;51131;52.298;13.686;2022-09-12T07:01:34;21.60;73.40
64705;DHT22;51131;52.298;13.686;2022-09-12T07:04:02;21.60;73.40
64705;DHT22;51131;52.298;13.686;2022-09-12T07:06:30;21.60;73.50
64705;DHT22;51131;52.298;13.686;2022-09-12T07:09:01;21.60;73.50
64705;DHT22;51131;52.298;13.686;2022-09-12T07:11:29;21.60;73.50
64705;DHT22;51131;52.298;13.686;2022-09-12T07:13:57;21.60;73.50
64705;DHT22;51131;52.298;13.686;2022-09-12T07:16:24;21.60;73.50
64705;DHT22;51131;52.298;13.686;2022-09-12T07:18:52;21.60;73.60
64705;DHT22;51131;52.298;13.686;2022-09-12T07:21:19;21.60;73.60
64705;DHT22;51131;52.298;13.686;2022-09-12T07:23:46;21.70;73.70
64705;DHT22;51131;52.298;13.686;2022-09-12T07:26:14;21.70;73.70
64705;DHT22;51131;52.298;13.686;2022-09-12T07:28:41;21.70;73.80
64705;DHT22;51131;52.298;13.686;2022-09-12T07:31:09;21.60;73.80
64705;DHT22;51131;52.298;13.686;2022-09-12T07:33:36;21.60;73.70
64705;DHT22;51131;52.298;13.686;2022-09-12T07:36:07;21.60;73.80
64705;DHT22;51131;52.298;13.686;2022-09-12T07:38:37;21.60;73.80
64705;DHT22;51131;52.298;13.686;2022-09-12T07:41:10;21.60;73.80
64705;DHT22;51131;52.298;13.686;2022-09-12T07:43:37;21.60;73.90
64705;DHT22;51131;52.298;13.686;2022-09-12T07:46:04;21.60;73.90
64705;DHT22;51131;52.298;13.686;2022-09-12T07:48:30;21.60;73.90
64705;DHT22;51131;52.298;13.686;2022-09-12T07:51:01;21.60;73.90
64705;DHT22;51131;52.298;13.686;2022-09-12T07:53:38;21.80;74.20
64705;DHT22;51131;52.298;13.686;2022-09-12T07:56:06;21.60;74.00
64705;DHT22;51131;52.298;13.686;2022-09-12T07:58:34;21.60;74.00
64705;DHT22;51131;52.298;13.686;2022-09-12T08:03:40;21.60;74.10
64705;DHT22;51131;52.298;13.686;2022-09-12T08:06:08;21.60;74.20
64705;DHT22;51131;52.298;13.686;2022-09-12T08:08:35;21.60;74.30
64705;DHT22;51131;52.298;13.686;2022-09-12T08:11:03;21.60;74.30
64705;DHT22;51131;52.298;13.686;2022-09-12T08:13:32;21.60;74.40
64705;DHT22;51131;52.298;13.686;2022-09-12T08:15:59;21.50;74.40
64705;DHT22;51131;52.298;13.686;2022-09-12T08:18:27;21.50;74.50
64705;DHT22;51131;52.298;13.686;2022-09-12T08:21:04;21.60;74.60
64705;DHT22;51131;52.298;13.686;2022-09-12T08:23:31;21.60;74.70
64705;DHT22;51131;52.298;13.686;2022-09-12T08:25:58;21.60;74.50
64705;DHT22;51131;52.298;13.686;2022-09-12T08:28:32;21.60;74.50
64705;DHT22;51131;52.298;13.686;2022-09-12T08:31:06;21.60;74.50
64705;DHT22;51131;52.298;13.686;2022-09-12T08:33:33;21.60;74.50
64705;DHT22;51131;52.298;13.686;2022-09-12T08:36:07;21.60;74.40
64705;DHT22;51131;52.298;13.686;2022-09-12T08:38:34;21.70;74.50
64705;DHT22;51131;52.298;13.686;2022-09-12T08:49:13;21.70;74.60
64705;DHT22;51131;52.298;13.686;2022-09-12T08:51:40;21.70;74.60
64705;DHT22;51131;52.298;13.686;2022-09-12T08:54:15;21.60;74.50
64705;DHT22;51131;52.298;13.686;2022-09-12T08:56:44;21.70;74.50
64705;DHT22;51131;52.298;13.686;2022-09-12T08:59:11;21.70;74.60
64705;DHT22;51131;52.298;13.686;2022-09-12T09:01:43;21.70;74.60
64705;DHT22;51131;52.298;13.686;2022-09-12T09:06:56;21.60;74.50
64705;DHT22;51131;52.298;13.686;2022-09-12T09:09:28;21.60;74.60
64705;DHT22;51131;52.298;13.686;2022-09-12T09:17:30;21.60;74.60
64705;DHT22;51131;52.298;13.686;2022-09-12T09:20:11;21.60;74.70
64705;DHT22;51131;52.298;13.686;2022-09-12T09:25:10;21.60;74.70
64705;DHT22;51131;52.298;13.686;2022-09-12T09:28:02;21.50;74.70
64705;DHT22;51131;52.298;13.686;2022-09-12T09:30:26;21.50;74.70
64705;DHT22;51131;52.298;13.686;2022-09-12T09:32:55;21.50;74.70
64705;DHT22;51131;52.298;13.686;2022-09-12T09:45:37;21.60;74.60
64705;DHT22;51131;52.298;13.686;2022-09-12T09:50:35;21.60;74.50
64705;DHT22;51131;52.298;13.686;2022-09-12T09:53:02;21.60;74.50
64705;DHT22;51131;52.298;13.686;2022-09-12T09:55:31;21.60;74.30
64705;DHT22;51131;52.298;13.686;2022-09-12T09:57:59;21.60;74.30
64705;DHT22;51131;52.298;13.686;2022-09-12T10:00:27;21.60;74.30
64705;DHT22;51131;52.298;13.686;2022-09-12T10:08:32;21.70;74.40
64705;DHT22;51131;52.298;13.686;2022-09-12T10:11:02;21.70;74.30
64705;DHT22;51131;52.298;13.686;2022-09-12T10:15:57;21.70;74.20
64705;DHT22;51131;52.298;13.686;2022-09-12T10:18:35;21.70;74.30
64705;DHT22;51131;52.298;13.686;2022-09-12T10:21:07;21.60;74.20
64705;DHT22;51131;52.298;13.686;2022-09-12T10:23:37;21.70;74.20
64705;DHT22;51131;52.298;13.686;2022-09-12T10:26:11;21.60;74.10
64705;DHT22;51131;52.298;13.686;2022-09-12T10:31:09;21.60;74.10
64705;DHT22;51131;52.298;13.686;2022-09-12T10:33:48;21.60;74.10
64705;DHT22;51131;52.298;13.686;2022-09-12T10:36:18;21.60;74.30
64705;DHT22;51131;52.298;13.686;2022-09-12T10:38:52;21.60;74.30
64705;DHT22;51131;52.298;13.686;2022-09-12T10:41:20;21.60;74.30
64705;DHT22;51131;52.298;13.686;2022-09-12T10:43:47;21.60;74.30
64705;DHT22;51131;52.298;13.686;2022-09-12T10:48:47;21.50;74.40
64705;DHT22;51131;52.298;13.686;2022-09-12T10:53:50;21.50;74.50
64705;DHT22;51131;52.298;13.686;2022-09-12T10:56:27;21.50;74.60
64705;DHT22;51131;52.298;13.686;2022-09-12T10:58:58;21.50;74.60
64705;DHT22;51131;52.298;13.686;2022-09-12T11:17:24;21.60;74.20
64705;DHT22;51131;52.298;13.686;2022-09-12T11:22:35;21.60;74.00
64705;DHT22;51131;52.298;13.686;2022-09-12T11:25:18;21.60;73.90
64705;DHT22;51131;52.298;13.686;2022-09-12T11:30:17;21.60;73.80
64705;DHT22;51131;52.298;13.686;2022-09-12T11:40:19;21.60;73.90
64705;DHT22;51131;52.298;13.686;2022-09-12T11:42:50;21.60;73.90
64705;DHT22;51131;52.298;13.686;2022-09-12T11:45:21;21.60;74.00
64705;DHT22;51131;52.298;13.686;2022-09-12T11:47:52;21.70;74.20
64705;DHT22;51131;52.298;13.686;2022-09-12T11:50:27;21.60;74.00
64705;DHT22;51131;52.298;13.686;2022-09-12T11:52:55;21.60;74.00
64705;DHT22;51131;52.298;13.686;2022-09-12T11:55:24;21.60;73.90
64705;DHT22;51131;52.298;13.686;2022-09-12T11:57:54;21.60;74.00
64705;DHT22;51131;52.298;13.686;2022-09-12T12:08:39;21.60;74.00
64705;DHT22;51131;52.298;13.686;2022-09-12T12:11:07;21.60;74.00
64705;DHT22;51131;52.298;13.686;2022-09-12T12:13:38;21.70;74.10
64705;DHT22;51131;52.298;13.686;2022-09-12T12:16:28;21.60;74.10
64705;DHT22;51131;52.298;13.686;2022-09-12T12:19:00;21.60;74.10
64705;DHT22;51131;52.298;13.686;2022-09-12T12:29:49;21.50;74.00
64705;DHT22;51131;52.298;13.686;2022-09-12T12:34:28;21.60;73.80
64705;DHT22;51131;52.298;13.686;2022-09-12T12:36:55;21.70;73.70
64705;DHT22;51131;52.298;13.686;2022-09-12T12:41:59;21.70;73.30
64705;DHT22;51131;52.298;13.686;2022-09-12T12:47:15;21.80;72.80
64705;DHT22;51131;52.298;13.686;2022-09-12T12:58:02;21.80;72.50
64705;DHT22;51131;52.298;13.686;2022-09-12T13:00:31;21.80;72.60
64705;DHT22;51131;52.298;13.686;2022-09-12T13:05:41;21.80;72.50
64705;DHT22;51131;52.298;13.686;2022-09-12T13:08:22;21.80;72.50
64705;DHT22;51131;52.298;13.686;2022-09-12T13:10:53;21.80;72.90
64705;DHT22;51131;52.298;13.686;2022-09-12T13:13:27;21.80;72.80
64705;DHT22;51131;52.298;13.686;2022-09-12T13:15:56;21.80;72.80
64705;DHT22;51131;52.298;13.686;2022-09-12T13:18:24;21.80;72.90
64705;DHT22;51131;52.298;13.686;2022-09-12T13:21:02;22.50;73.60
64705;DHT22;51131;52.298;13.686;2022-09-12T13:23:31;21.70;72.90
64705;DHT22;51131;52.298;13.686;2022-09-12T13:25:58;21.80;72.90
64705;DHT22;51131;52.298;13.686;2022-09-12T13:28:26;21.70;72.90
64705;DHT22;51131;52.298;13.686;2022-09-12T13:30:55;21.70;72.70
64705;DHT22;51131;52.298;13.686;2022-09-12T13:35:59;21.80;72.10
64705;DHT22;51131;52.298;13.686;2022-09-12T13:41:22;21.70;72.40
64705;DHT22;51131;52.298;13.686;2022-09-12T13:43:53;21.70;72.60
64705;DHT22;51131;52.298;13.686;2022-09-12T13:46:24;21.70;72.80
64705;DHT22;51131;52.298;13.686;2022-09-12T13:48:52;21.70;72.90
64705;DHT22;51131;52.298;13.686;2022-09-12T13:51:21;21.70;73.00
64705;DHT22;51131;52.298;13.686;2022-09-12T13:53:48;21.60;72.80
64705;DHT22;51131;52.298;13.686;2022-09-12T13:56:16;21.70;73.10
64705;DHT22;51131;52.298;13.686;2022-09-12T13:58:50;21.70;73.00
64705;DHT22;51131;52.298;13.686;2022-09-12T14:01:17;21.70;73.10
64705;DHT22;51131;52.298;13.686;2022-09-12T14:06:40;21.70;73.20
64705;DHT22;51131;52.298;13.686;2022-09-12T14:09:13;21.70;73.30
64705;DHT22;51131;52.298;13.686;2022-09-12T14:11:40;21.70;73.30
64705;DHT22;51131;52.298;13.686;2022-09-12T14:14:14;21.70;73.30
64705;DHT22;51131;52.298;13.686;2022-09-12T14:16:43;21.70;73.30
64705;DHT22;51131;52.298;13.686;2022-09-12T14:19:10;21.70;73.40
64705;DHT22;51131;52.298;13.686;2022-09-12T14:21:37;21.70;73.30
64705;DHT22;51131;52.298;13.686;2022-09-12T14:24:05;21.60;73.20
64705;DHT22;51131;52.298;13.686;2022-09-12T14:26:33;21.60;73.30
64705;DHT22;51131;52.298;13.686;2022-09-12T14:29:00;21.70;73.40
64705;DHT22;51131;52.298;13.686;2022-09-12T14:31:31;21.60;73.30
64705;DHT22;51131;52.298;13.686;2022-09-12T14:34:08;21.60;73.40
64705;DHT22;51131;52.298;13.686;2022-09-12T14:39:05;21.60;73.40
64705;DHT22;51131;52.298;13.686;2022-09-12T14:41:36;21.60;73.50
64705;DHT22;51131;52.298;13.686;2022-09-12T14:44:05;21.70;73.60
64705;DHT22;51131;52.298;13.686;2022-09-12T14:49:07;21.60;73.60
64705;DHT22;51131;52.298;13.686;2022-09-12T14:51:39;21.60;73.60
64705;DHT22;51131;52.298;13.686;2022-09-12T14:54:22;21.60;73.60
64705;DHT22;51131;52.298;13.686;2022-09-12T14:56:55;21.60;74.30
64705;DHT22;51131;52.298;13.686;2022-09-12T14:59:27;21.60;73.60
64705;DHT22;51131;52.298;13.686;2022-09-12T15:02:10;21.70;73.80
64705;DHT22;51131;52.298;13.686;2022-09-12T15:04:38;21.60;73.70
64705;DHT22;51131;52.298;13.686;2022-09-12T15:07:23;21.60;73.70
64705;DHT22;51131;52.298;13.686;2022-09-12T15:09:51;21.60;73.80
64705;DHT22;51131;52.298;13.686;2022-09-12T15:12:18;21.60;73.80
64705;DHT22;51131;52.298;13.686;2022-09-12T15:14:45;21.60;73.80
64705;DHT22;51131;52.298;13.686;2022-09-12T15:17:11;21.60;73.80
64705;DHT22;51131;52.298;13.686;2022-09-12T15:19:38;22.10;74.30
64705;DHT22;51131;52.298;13.686;2022-09-12T15:22:04;21.60;73.90
64705;DHT22;51131;52.298;13.686;2022-09-12T15:24:31;21.60;73.90
64705;DHT22;51131;52.298;13.686;2022-09-12T15:26:58;21.60;73.90
64705;DHT22;51131;52.298;13.686;2022-09-12T15:29:24;21.60;74.10
64705;DHT22;51131;52.298;13.686;2022-09-12T15:31:51;21.60;74.00
64705;DHT22;51131;52.298;13.686;2022-09-12T15:34:18;21.60;74.00
64705;DHT22;51131;52.298;13.686;2022-09-12T15:36:45;21.60;74.10
64705;DHT22;51131;52.298;13.686;2022-09-12T15:39:12;21.60;74.10
64705;DHT22;51131;52.298;13.686;2022-09-12T15:41:38;21.60;74.10
64705;DHT22;51131;52.298;13.686;2022-09-12T15:44:06;21.60;74.00
64705;DHT22;51131;52.298;13.686;2022-09-12T15:46:33;21.60;74.10
64705;DHT22;51131;52.298;13.686;2022-09-12T15:49:00;21.60;74.10
64705;DHT22;51131;52.298;13.686;2022-09-12T15:51:27;21.60;74.10
64705;DHT22;51131;52.298;13.686;2022-09-12T15:53:53;21.60;74.20
64705;DHT22;51131;52.298;13.686;2022-09-12T15:56:20;21.60;74.20
64705;DHT22;51131;52.298;13.686;2022-09-12T15:58:47;21.60;74.20
64705;DHT22;51131;52.298;13.686;2022-09-12T16:01:25;21.60;74.20
64705;DHT22;51131;52.298;13.686;2022-09-12T16:03:51;21.50;74.20
64705;DHT22;51131;52.298;13.686;2022-09-12T16:06:18;21.50;74.10
64705;DHT22;51131;52.298;13.686;2022-09-12T16:08:45;21.60;74.20
64705;DHT22;51131;52.298;13.686;2022-09-12T16:11:30;21.60;74.20
64705;DHT22;51131;52.298;13.686;2022-09-12T16:13:56;21.50;74.20
64705;DHT22;51131;52.298;13.686;2022-09-12T16:16:23;21.60;74.30
64705;DHT22;51131;52.298;13.686;2022-09-12T16:18:50;21.50;74.20
64705;DHT22;51131;52.298;13.686;2022-09-12T16:21:17;21.50;74.20
64705;DHT22;51131;52.298;13.686;2022-09-12T16:23:44;21.50;74.30
64705;DHT22;51131;52.298;13.686;2022-09-12T16:26:11;21.50;74.20
64705;DHT22;51131;52.298;13.686;2022-09-12T16:28:38;21.50;74.30
64705;DHT22;51131;52.298;13.686;2022-09-12T16:31:06;22.40;75.20
64705;DHT22;51131;52.298;13.686;2022-09-12T16:33:33;21.50;74.30
64705;DHT22;51131;52.298;13.686;2022-09-12T16:36:01;21.50;74.30
64705;DHT22;51131;52.298;13.686;2022-09-12T16:38:29;21.50;74.30
64705;DHT22;51131;52.298;13.686;2022-09-12T16:41:04;21.50;74.40
64705;DHT22;51131;52.298;13.686;2022-09-12T16:43:31;21.50;75.00
64705;DHT22;51131;52.298;13.686;2022-09-12T16:46:08;21.50;74.40
64705;DHT22;51131;52.298;13.686;2022-09-12T16:48:36;21.50;74.40
64705;DHT22;51131;52.298;13.686;2022-09-12T16:51:04;21.50;74.40
64705;DHT22;51131;52.298;13.686;2022-09-12T16:53:33;21.50;74.40
64705;DHT22;51131;52.298;13.686;2022-09-12T16:56:00;21.50;74.40
64705;DHT22;51131;52.298;13.686;2022-09-12T16:58:26;21.50;74.40
64705;DHT22;51131;52.298;13.686;2022-09-12T17:01:00;21.50;74.40
64705;DHT22;51131;52.298;13.686;2022-09-12T17:03:27;21.50;74.40
64705;DHT22;51131;52.298;13.686;2022-09-12T17:08:40;21.50;74.40
64705;DHT22;51131;52.298;13.686;2022-09-12T17:11:08;21.50;74.40
64705;DHT22;51131;52.298;13.686;2022-09-12T17:13:34;21.50;74.40
64705;DHT22;51131;52.298;13.686;2022-09-12T17:16:21;21.50;74.40
64705;DHT22;51131;52.298;13.686;2022-09-12T17:18:49;21.40;74.40
64705;DHT22;51131;52.298;13.686;2022-09-12T17:21:16;21.50;74.50
64705;DHT22;51131;52.298;13.686;2022-09-12T17:23:43;21.40;74.40
64705;DHT22;51131;52.298;13.686;2022-09-12T17:26:10;21.40;74.40
64705;DHT22;51131;52.298;13.686;2022-09-12T17:28:37;21.40;74.40
64705;DHT22;51131;52.298;13.686;2022-09-12T17:31:05;21.50;74.60
64705;DHT22;51131;52.298;13.686;2022-09-12T17:33:32;21.40;74.40
64705;DHT22;51131;52.298;13.686;2022-09-12T17:36:00;21.40;74.50
64705;DHT22;51131;52.298;13.686;2022-09-12T17:38:30;21.50;74.70
64705;DHT22;51131;52.298;13.686;2022-09-12T17:41:03;21.40;74.50
64705;DHT22;51131;52.298;13.686;2022-09-12T17:43:30;21.40;74.50
64705;DHT22;51131;52.298;13.686;2022-09-12T17:45:56;21.40;74.50
64705;DHT22;51131;52.298;13.686;2022-09-12T17:48:23;21.40;74.50
64705;DHT22;51131;52.298;13.686;2022-09-12T17:50:50;21.40;74.60
64705;DHT22;51131;52.298;13.686;2022-09-12T17:53:17;21.50;74.70
64705;DHT22;51131;52.298;13.686;2022-09-12T17:55:44;21.50;74.70
64705;DHT22;51131;52.298;13.686;2022-09-12T17:58:11;21.60;74.70
64705;DHT22;51131;52.298;13.686;2022-09-12T18:00:38;21.60;74.70
64705;DHT22;51131;52.298;13.686;2022-09-12T18:03:23;21.60;75.40
64705;DHT22;51131;52.298;13.686;2022-09-12T18:05:53;21.60;74.60
64705;DHT22;51131;52.298;13.686;2022-09-12T18:08:21;21.60;74.70
64705;DHT22;51131;52.298;13.686;2022-09-12T18:10:48;21.60;74.60
64705;DHT22;51131;52.298;13.686;2022-09-12T18:13:16;21.60;74.70
64705;DHT22;51131;52.298;13.686;2022-09-12T18:15:43;21.60;74.60
64705;DHT22;51131;52.298;13.686;2022-09-12T18:18:10;21.60;74.60
64705;DHT22;51131;52.298;13.686;2022-09-12T18:20:36;19.60;72.60